Time;durP1;ratioP1;P1;durP2;ratioP2;P2;SDS_P1;SDS_P2;PMS_P1;PMS_P2;Temp;Humidity;BMP_temperature;BMP_pressure;BME280_temperature;BME280_humidity;BME280_pressure;Samples;Min_cycle;Max_cycle;Signal;HPM_P1;HPM_P2
2022/02/02 20:22:35;;;;;;;12.77;10.90;;;5.20;99.90;;;;;;6333034;22;20431;-87
2022/02/02 20:25:03;;;;;;;13.50;12.10;;;5.20;99.90;;;;;;6299864;22;20486;-83
2022/02/02 20:27:32;;;;;;;12.63;11.10;;;5.10;99.90;;;;;;6301176;22;20486;-81
2022/02/02 20:29:58;;;;;;;9.53;8.73;;;5.10;99.90;;;;;;6298873;22;20399;-83
2022/02/02 20:32:24;;;;;;;10.70;9.13;;;5.10;99.90;;;;;;6298500;22;20480;-82
2022/02/02 20:34:50;;;;;;;9.77;8.80;;;5.10;99.90;;;;;;6294905;22;20383;-84
2022/02/02 20:37:42;;;;;;;9.33;8.23;;;5.10;99.90;;;;;;6296038;22;20457;-86
2022/02/02 20:40:14;;;;;;;8.90;8.00;;;5.20;99.90;;;;;;6294861;22;20475;-85
2022/02/02 20:43:07;;;;;;;8.80;7.90;;;5.20;99.90;;;;;;6269087;22;20455;-85
2022/02/02 21:10:43;;;;;;;5.87;5.37;;;5.50;99.90;;;;;;6329432;22;20411;-92
2022/02/02 21:16:01;;;;;;;7.10;6.50;;;5.70;99.90;;;;;;6324301;22;20366;-86
2022/02/02 21:21:54;;;;;;;6.77;6.17;;;5.80;99.90;;;;;;6323852;22;20997;-88
2022/02/02 21:31:08;;;;;;;;;;;;;;;;;;;;;
2022/02/02 21:36:31;;;;;;;8.13;7.30;;;5.90;99.90;;;;;;6308071;22;20410;-85
2022/02/02 21:39:07;;;;;;;8.97;8.17;;;5.90;99.90;;;;;;6296882;22;20379;-85
2022/02/02 21:41:38;;;;;;;8.57;7.67;;;6.00;99.90;;;;;;6297322;22;20411;-84
2022/02/02 21:44:09;;;;;;;10.43;7.80;;;6.00;99.90;;;;;;6295340;22;20390;-84
2022/02/02 21:46:41;;;;;;;10.33;8.57;;;6.00;99.90;;;;;;6299840;22;20852;-84
2022/02/02 21:59:24;;;;;;;11.57;10.47;;;6.00;99.90;;;;;;6313010;22;20398;-85
2022/02/02 22:02:21;;;;;;;10.80;9.00;;;6.00;99.90;;;;;;6325050;22;20888;-85
2022/02/02 22:04:47;;;;;;;13.07;10.60;;;6.10;99.90;;;;;;6296164;22;20388;-85
2022/02/02 22:07:15;;;;;;;11.30;10.20;;;6.10;99.90;;;;;;6297023;22;20918;-85
2022/02/02 22:09:56;;;;;;;10.23;9.33;;;6.10;99.90;;;;;;6298461;22;20165;-84
2022/02/02 22:12:22;;;;;;;10.53;9.40;;;6.20;99.90;;;;;;6300389;22;20435;-84
2022/02/02 22:14:51;;;;;;;10.43;9.43;;;6.20;99.90;;;;;;6299161;22;20385;-84
2022/02/02 22:17:18;;;;;;;10.53;9.17;;;6.20;99.90;;;;;;6301339;22;20408;-84
2022/02/02 22:19:55;;;;;;;11.20;10.10;;;6.20;99.90;;;;;;6296288;22;20382;-84
2022/02/02 22:22:56;;;;;;;;;;;;;;;;;;;;;
2022/02/02 22:25:33;;;;;;;11.37;9.70;;;6.30;99.90;;;;;;6323615;22;20641;-84
2022/02/02 22:28:09;;;;;;;12.07;10.03;;;6.30;99.90;;;;;;6297439;22;20383;-84
2022/02/02 22:33:39;;;;;;;;;;;;;;;;;;;;;
2022/02/02 22:36:08;;;;;;;10.00;8.90;;;6.40;99.90;;;;;;6323587;22;20365;-84
2022/02/02 22:38:34;;;;;;;9.30;8.40;;;6.40;99.90;;;;;;6293442;22;20466;-84
2022/02/02 22:41:00;;;;;;;9.30;8.40;;;6.40;99.90;;;;;;6291276;22;20389;-84
2022/02/02 22:43:33;;;;;;;9.83;8.90;;;6.40;99.90;;;;;;6296033;22;20152;-84
2022/02/02 22:46:05;;;;;;;11.20;9.00;;;6.40;99.90;;;;;;6297257;22;20156;-84
2022/02/02 22:48:44;;;;;;;9.57;8.67;;;6.40;99.90;;;;;;6297595;22;20783;-84
2022/02/02 22:51:12;;;;;;;10.33;9.30;;;6.40;99.90;;;;;;6291409;22;20477;-84
2022/02/02 22:53:38;;;;;;;11.20;10.10;;;6.40;99.90;;;;;;6297425;22;20391;-84
2022/02/02 22:56:06;;;;;;;10.90;9.80;;;6.30;99.90;;;;;;6297141;22;20371;-84
2022/02/02 22:58:35;;;;;;;9.80;8.80;;;6.30;99.90;;;;;;6298433;22;20553;-84
2022/02/02 23:01:04;;;;;;;9.40;8.50;;;6.30;99.90;;;;;;6293485;22;20917;-84
2022/02/02 23:03:37;;;;;;;9.23;8.33;;;6.30;99.90;;;;;;6295508;22;20391;-84
2022/02/02 23:06:03;;;;;;;9.63;8.63;;;6.30;99.90;;;;;;6300418;22;20756;-84
2022/02/02 23:08:37;;;;;;;10.30;9.23;;;6.30;99.90;;;;;;6299640;22;20881;-85
2022/02/02 23:11:20;;;;;;;10.07;9.03;;;6.30;99.90;;;;;;6296644;22;20426;-84
2022/02/02 23:14:04;;;;;;;10.80;9.67;;;6.40;99.90;;;;;;6321674;22;20387;-84
2022/02/02 23:17:06;;;;;;;11.57;10.27;;;6.40;99.90;;;;;;6323344;22;20375;-84
2022/02/02 23:19:38;;;;;;;10.80;9.70;;;6.40;99.90;;;;;;6322760;22;20383;-84
2022/02/02 23:22:39;;;;;;;10.00;9.00;;;6.50;99.90;;;;;;6295627;22;20413;-85
2022/02/02 23:25:35;;;;;;;;;;;;;;;;;;;;;
2022/02/02 23:28:19;;;;;;;19.17;12.17;;;6.50;99.90;;;;;;6296720;22;20392;-84
2022/02/02 23:30:58;;;;;;;17.77;11.90;;;6.50;99.90;;;;;;6295843;22;20415;-84
2022/02/02 23:33:24;;;;;;;19.73;12.20;;;6.50;99.90;;;;;;6295937;22;20406;-84
2022/02/02 23:36:14;;;;;;;13.50;10.40;;;6.50;99.90;;;;;;6296085;22;20395;-84
2022/02/02 23:38:48;;;;;;;10.60;9.60;;;6.50;99.90;;;;;;6299988;22;20234;-84
2022/02/02 23:44:00;;;;;;;12.03;10.40;;;6.60;99.90;;;;;;6322355;22;20432;-84
2022/02/02 23:46:35;;;;;;;11.87;10.70;;;6.60;99.90;;;;;;6295443;22;20424;-84
2022/02/02 23:49:17;;;;;;;12.53;11.30;;;6.60;99.90;;;;;;6295580;22;20389;-85
2022/02/02 23:51:47;;;;;;;12.97;11.20;;;6.50;99.90;;;;;;6296518;22;20473;-84
2022/02/02 23:54:14;;;;;;;10.43;9.53;;;6.50;99.90;;;;;;6297943;22;20395;-84
2022/02/02 23:56:58;;;;;;;12.30;11.10;;;6.40;99.90;;;;;;6322303;22;20385;-84
2022/02/02 23:59:32;;;;;;;12.83;11.53;;;6.40;99.90;;;;;;6296592;22;20388;-84
